createdAt,value
2022-07-25T00:01:50.348Z,190.40
2022-07-25T00:04:17.750Z,191.48
2022-07-25T00:06:45.796Z,190.27
2022-07-25T00:09:12.662Z,188.88
2022-07-25T00:11:39.374Z,188.10
2022-07-25T00:14:06.983Z,183.80
2022-07-25T00:16:34.320Z,187.55
2022-07-25T00:19:01.279Z,186.27
2022-07-25T00:21:28.016Z,184.32
2022-07-25T00:23:54.701Z,184.90
2022-07-25T00:26:21.337Z,188.07
2022-07-25T00:28:48.147Z,188.75
2022-07-25T00:31:14.927Z,188.80
2022-07-25T00:33:41.619Z,190.40
2022-07-25T00:36:09.371Z,191.27
2022-07-25T00:38:36.217Z,184.52
2022-07-25T00:41:04.046Z,187.55
2022-07-25T00:43:30.879Z,186.40
2022-07-25T00:45:58.773Z,190.98
2022-07-25T00:48:27.351Z,189.25
2022-07-25T00:50:54.404Z,195.13
2022-07-25T00:53:21.567Z,192.23
2022-07-25T00:55:48.378Z,191.65
2022-07-25T00:58:15.049Z,190.73
2022-07-25T01:00:41.888Z,191.60
2022-07-25T01:03:08.579Z,190.38
2022-07-25T01:05:35.251Z,191.93
2022-07-25T01:08:02.780Z,196.55
2022-07-25T01:10:32.476Z,193.57
2022-07-25T01:12:59.184Z,190.77
2022-07-25T01:15:26.344Z,190.18
2022-07-25T01:17:53.238Z,190.37
2022-07-25T01:20:21.724Z,190.23
2022-07-25T01:22:49.177Z,192.55
2022-07-25T01:25:16.620Z,191.13
2022-07-25T01:27:43.747Z,190.52
2022-07-25T01:30:13.024Z,191.23
2022-07-25T01:32:40.119Z,187.10
2022-07-25T01:35:08.459Z,191.88
2022-07-25T01:37:35.688Z,189.48
2022-07-25T01:40:03.772Z,190.32
2022-07-25T01:42:30.486Z,184.32
2022-07-25T01:44:57.943Z,183.07
2022-07-25T01:47:24.675Z,186.43
2022-07-25T01:49:51.373Z,182.60
2022-07-25T01:52:18.515Z,187.88
2022-07-25T01:54:45.268Z,190.10
2022-07-25T01:57:11.956Z,186.35
2022-07-25T01:59:40.652Z,187.40
2022-07-25T02:02:09.155Z,181.20
2022-07-25T02:04:36.681Z,186.85
2022-07-25T02:07:04.366Z,187.57
2022-07-25T02:09:32.930Z,184.97
2022-07-25T02:11:59.663Z,177.27
2022-07-25T02:14:26.506Z,181.18
2022-07-25T02:16:53.874Z,181.68
2022-07-25T02:19:24.417Z,178.90
2022-07-25T02:21:51.273Z,178.00
2022-07-25T02:24:17.941Z,177.77
2022-07-25T02:26:44.584Z,178.77
2022-07-25T02:29:11.320Z,180.18
2022-07-25T02:31:37.932Z,182.20
2022-07-25T02:34:05.149Z,180.15
2022-07-25T02:36:32.090Z,184.82
2022-07-25T02:38:58.757Z,183.38
2022-07-25T02:41:25.424Z,179.13
2022-07-25T02:43:52.074Z,177.10
2022-07-25T02:46:18.829Z,177.48
2022-07-25T02:48:45.737Z,180.80
2022-07-25T02:51:12.525Z,173.77
2022-07-25T02:56:29.784Z,174.73
2022-07-25T02:58:57.350Z,169.98
2022-07-25T03:01:24.240Z,174.73
2022-07-25T03:03:51.042Z,173.85
2022-07-25T03:06:18.140Z,172.52
2022-07-25T03:08:44.771Z,171.85
2022-07-25T03:11:12.654Z,175.48
2022-07-25T03:13:39.343Z,170.73
2022-07-25T03:16:07.287Z,175.02
2022-07-25T03:18:34.113Z,176.10
2022-07-25T03:21:00.862Z,176.23
2022-07-25T03:23:28.335Z,170.77
2022-07-25T03:25:55.802Z,166.35
2022-07-25T03:28:23.222Z,168.30
2022-07-25T03:30:49.985Z,165.38
2022-07-25T03:33:16.634Z,161.98
2022-07-25T03:35:45.294Z,160.30
2022-07-25T03:38:11.944Z,160.40
2022-07-25T03:40:38.638Z,161.55
2022-07-25T03:43:05.574Z,155.85
2022-07-25T03:45:32.525Z,157.57
2022-07-25T03:47:59.264Z,154.85
2022-07-25T03:50:25.994Z,158.80
2022-07-25T03:52:52.597Z,158.20
2022-07-25T03:55:19.227Z,162.32
2022-07-25T03:57:45.876Z,161.45
2022-07-25T04:00:12.867Z,144.40
2022-07-25T04:02:39.982Z,149.35
2022-07-25T04:05:07.905Z,146.88
2022-07-25T04:07:34.963Z,149.50
2022-07-25T04:10:02.047Z,145.80
2022-07-25T04:12:28.817Z,146.55
2022-07-25T04:14:55.426Z,151.52
2022-07-25T04:17:22.230Z,150.73
2022-07-25T04:19:52.521Z,150.20
2022-07-25T04:22:19.504Z,146.82
2022-07-25T04:24:46.128Z,146.60
2022-07-25T04:27:12.824Z,144.43
2022-07-25T04:29:39.620Z,141.65
2022-07-25T04:32:06.618Z,135.35
2022-07-25T04:34:33.291Z,133.50
2022-07-25T04:37:00.085Z,124.53
2022-07-25T04:39:26.758Z,121.43
2022-07-25T04:41:53.360Z,116.68
2022-07-25T04:44:19.978Z,113.10
2022-07-25T04:46:46.582Z,108.97
2022-07-25T04:49:13.455Z,109.05
2022-07-25T04:51:40.210Z,107.97
2022-07-25T04:54:07.219Z,101.70
2022-07-25T04:56:33.977Z,93.28
2022-07-25T04:59:06.158Z,81.18
2022-07-25T05:01:34.042Z,83.20
2022-07-25T05:04:00.740Z,72.97
2022-07-25T05:06:27.373Z,61.58
2022-07-25T05:08:54.090Z,53.67
2022-07-25T05:11:20.811Z,47.47
2022-07-25T05:13:47.511Z,51.97
2022-07-25T05:16:14.442Z,51.33
2022-07-25T05:18:41.135Z,54.83
2022-07-25T05:21:12.666Z,45.72
2022-07-25T05:23:39.663Z,49.92
2022-07-25T05:26:06.323Z,53.75
2022-07-25T05:28:33.050Z,50.97
2022-07-25T05:30:59.689Z,55.08
2022-07-25T05:33:26.699Z,45.33
2022-07-25T05:35:53.538Z,49.88
2022-07-25T05:38:20.503Z,42.70
2022-07-25T05:40:48.071Z,27.70
2022-07-25T05:43:14.869Z,27.42
2022-07-25T05:45:41.563Z,21.77
2022-07-25T05:48:08.321Z,13.98
2022-07-25T05:50:36.951Z,11.18
2022-07-25T05:53:03.563Z,6.13
2022-07-25T05:55:30.120Z,6.33
2022-07-25T05:57:59.633Z,5.15
2022-07-25T06:00:29.401Z,5.80
2022-07-25T06:02:59.697Z,5.47
2022-07-25T06:05:26.623Z,4.45
2022-07-25T06:07:53.272Z,4.40
2022-07-25T06:10:20.483Z,5.47
2022-07-25T06:12:51.427Z,5.75
2022-07-25T06:15:23.123Z,6.22
2022-07-25T06:17:53.839Z,6.65
2022-07-25T06:20:20.833Z,6.37
2022-07-25T06:22:47.572Z,6.00
2022-07-25T06:25:15.020Z,6.05
2022-07-25T06:27:42.476Z,5.18
2022-07-25T06:30:19.146Z,5.18
2022-07-25T06:32:46.166Z,4.50
2022-07-25T06:35:12.781Z,3.90
2022-07-25T06:37:39.931Z,3.33
2022-07-25T06:40:08.145Z,3.23
2022-07-25T06:42:45.734Z,3.38
2022-07-25T06:45:13.865Z,2.83
2022-07-25T06:47:41.981Z,2.88
2022-07-25T06:50:12.023Z,2.65
2022-07-25T06:52:39.474Z,2.40
2022-07-25T06:55:07.840Z,2.50
2022-07-25T06:57:34.494Z,2.30
2022-07-25T07:00:01.313Z,2.45
2022-07-25T07:02:28.107Z,2.60
2022-07-25T07:04:54.728Z,2.38
2022-07-25T07:07:21.342Z,2.45
2022-07-25T07:09:47.987Z,2.58
2022-07-25T07:12:14.666Z,2.30
2022-07-25T07:14:41.944Z,2.33
2022-07-25T07:17:08.659Z,2.42
2022-07-25T07:19:35.324Z,2.20
2022-07-25T07:22:01.926Z,2.65
2022-07-25T07:24:28.903Z,2.13
2022-07-25T07:26:55.717Z,2.30
2022-07-25T07:29:22.368Z,2.15
2022-07-25T07:31:49.097Z,2.10
2022-07-25T07:34:16.481Z,2.20
2022-07-25T07:36:45.778Z,2.30
2022-07-25T07:39:12.449Z,2.05
2022-07-25T07:41:39.064Z,2.28
2022-07-25T07:44:05.962Z,2.20
2022-07-25T07:46:32.729Z,2.20
2022-07-25T07:48:59.481Z,2.72
2022-07-25T07:51:26.188Z,2.33
2022-07-25T07:54:11.393Z,2.00
2022-07-25T07:56:39.409Z,2.00
2022-07-25T07:59:06.317Z,2.00
2022-07-25T08:01:33.498Z,2.38
2022-07-25T08:04:00.235Z,2.20
2022-07-25T08:06:27.863Z,2.20
2022-07-25T08:08:54.599Z,2.10
2022-07-25T08:11:21.306Z,2.22
2022-07-25T08:13:48.053Z,2.03
2022-07-25T08:16:14.722Z,2.20
2022-07-25T08:18:41.733Z,2.10
2022-07-25T08:21:09.119Z,2.00
2022-07-25T08:23:38.616Z,2.97
2022-07-25T08:26:05.702Z,1.90
2022-07-25T08:28:32.561Z,1.90
2022-07-25T08:30:59.389Z,2.17
2022-07-25T08:33:26.815Z,2.20
2022-07-25T08:35:54.934Z,2.00
2022-07-25T08:38:22.960Z,2.22
2022-07-25T08:40:49.748Z,2.10
2022-07-25T08:43:17.829Z,2.08
2022-07-25T08:45:50.282Z,2.10
2022-07-25T08:48:19.070Z,2.15
2022-07-25T08:50:47.001Z,2.00
2022-07-25T08:53:32.754Z,1.98
2022-07-25T08:56:00.552Z,2.20
2022-07-25T08:58:27.212Z,2.13
2022-07-25T09:00:53.969Z,2.10
2022-07-25T09:03:20.693Z,2.10
2022-07-25T09:05:47.502Z,1.80
2022-07-25T09:08:17.417Z,2.15
2022-07-25T09:10:49.462Z,2.03
2022-07-25T09:13:16.749Z,2.10
2022-07-25T09:15:52.000Z,1.92
2022-07-25T09:18:23.370Z,2.15
2022-07-25T09:20:58.264Z,2.10
2022-07-25T09:23:30.791Z,2.30
2022-07-25T09:26:15.017Z,1.90
2022-07-25T09:28:47.498Z,2.00
2022-07-25T09:31:15.705Z,2.00
2022-07-25T09:33:59.795Z,2.30
2022-07-25T09:36:26.494Z,1.80
2022-07-25T09:38:53.588Z,1.90
2022-07-25T09:41:23.338Z,2.30
2022-07-25T09:43:50.347Z,2.03
2022-07-25T09:46:17.298Z,2.20
2022-07-25T09:48:45.248Z,2.05
2022-07-25T09:51:12.198Z,2.17
2022-07-25T09:53:40.387Z,2.15
2022-07-25T09:56:17.052Z,2.03
2022-07-25T09:58:43.737Z,2.10
2022-07-25T10:01:18.177Z,2.17
2022-07-25T10:03:50.864Z,2.28
2022-07-25T10:06:26.402Z,2.13
2022-07-25T10:08:54.066Z,2.13
2022-07-25T10:11:26.407Z,2.00
2022-07-25T10:13:54.628Z,2.40
2022-07-25T10:16:26.621Z,2.33
2022-07-25T10:18:58.197Z,2.33
2022-07-25T10:21:28.280Z,2.33
2022-07-25T10:24:05.213Z,2.40
2022-07-25T10:26:34.668Z,2.40
2022-07-25T10:29:02.254Z,2.55
2022-07-25T10:31:31.934Z,2.10
2022-07-25T10:34:01.718Z,2.23
2022-07-25T10:36:42.264Z,2.60
2022-07-25T10:39:11.607Z,2.58
2022-07-25T10:41:50.510Z,2.30
2022-07-25T10:44:17.361Z,2.05
2022-07-25T10:46:44.923Z,2.13
2022-07-25T10:49:31.704Z,2.40
2022-07-25T10:52:01.196Z,2.13
2022-07-25T10:54:36.892Z,1.90
2022-07-25T10:57:06.427Z,1.93
2022-07-25T10:59:38.551Z,2.40
2022-07-25T11:02:09.589Z,2.05
2022-07-25T11:04:36.824Z,1.95
2022-07-25T11:07:14.368Z,2.15
2022-07-25T11:09:42.940Z,2.22
2022-07-25T11:12:14.094Z,2.00
2022-07-25T11:14:42.786Z,2.20
2022-07-25T11:17:20.849Z,2.28
2022-07-25T11:20:04.192Z,2.58
2022-07-25T11:22:32.086Z,2.03
2022-07-25T11:25:00.038Z,2.28
2022-07-25T11:27:31.692Z,2.10
2022-07-25T11:30:14.081Z,2.75
2022-07-25T11:32:47.589Z,2.50
2022-07-25T11:35:14.836Z,2.40
2022-07-25T11:37:44.129Z,2.20
2022-07-25T11:40:11.181Z,2.42
2022-07-25T11:42:46.577Z,2.35
2022-07-25T11:45:37.134Z,2.37
2022-07-25T11:48:10.177Z,2.30
2022-07-25T11:50:40.265Z,2.28
2022-07-25T11:53:09.334Z,2.15
2022-07-25T11:55:40.268Z,2.38
2022-07-25T11:58:08.231Z,2.10
2022-07-25T12:00:39.817Z,2.20
2022-07-25T12:03:16.985Z,2.30
2022-07-25T12:05:47.014Z,2.10
2022-07-25T12:08:15.890Z,2.20
2022-07-25T12:10:44.063Z,2.40
2022-07-25T12:13:25.141Z,2.15
2022-07-25T12:15:52.819Z,2.55
2022-07-25T12:18:19.752Z,2.20
2022-07-25T12:20:46.430Z,2.47
2022-07-25T12:23:14.049Z,2.40
2022-07-25T12:25:45.745Z,2.67
2022-07-25T12:28:13.156Z,2.53
2022-07-25T12:30:42.829Z,2.53
2022-07-25T12:33:10.449Z,2.88
2022-07-25T12:35:39.941Z,2.40
2022-07-25T12:38:06.662Z,2.53
2022-07-25T12:40:33.726Z,2.20
2022-07-25T12:43:01.069Z,2.10
2022-07-25T12:45:27.941Z,2.30
2022-07-25T12:47:54.707Z,2.25
2022-07-25T12:50:21.669Z,2.15
2022-07-25T12:52:48.403Z,2.30
2022-07-25T12:55:17.311Z,2.40
2022-07-25T12:57:44.934Z,2.87
2022-07-25T13:00:14.445Z,2.88
2022-07-25T13:02:41.451Z,2.58
2022-07-25T13:05:08.333Z,2.38
2022-07-25T13:07:35.416Z,2.20
2022-07-25T13:10:03.731Z,2.30
2022-07-25T13:12:30.756Z,2.60
2022-07-25T13:14:57.865Z,2.42
2022-07-25T13:17:27.488Z,2.60
2022-07-25T13:19:55.456Z,2.50
2022-07-25T13:22:22.108Z,2.38
2022-07-25T13:24:48.733Z,2.40
2022-07-25T13:27:18.381Z,2.70
2022-07-25T13:29:45.090Z,2.35
2022-07-25T13:32:12.158Z,2.88
2022-07-25T13:34:41.387Z,3.03
2022-07-25T13:37:08.086Z,2.58
2022-07-25T13:39:35.672Z,2.63
2022-07-25T13:42:03.049Z,2.73
2022-07-25T13:44:29.667Z,2.40
2022-07-25T13:46:57.439Z,2.53
2022-07-25T13:49:25.020Z,2.50
2022-07-25T13:51:51.665Z,2.92
2022-07-25T13:54:18.402Z,2.40
2022-07-25T13:56:45.117Z,2.80
2022-07-25T13:59:17.301Z,2.90
2022-07-25T14:01:47.478Z,2.75
2022-07-25T14:04:14.342Z,2.78
2022-07-25T14:06:41.561Z,2.67
2022-07-25T14:09:08.744Z,2.67
2022-07-25T14:11:35.739Z,2.58
2022-07-25T14:14:02.399Z,2.95
2022-07-25T14:16:29.310Z,3.00
2022-07-25T14:18:56.221Z,2.70
2022-07-25T14:21:22.889Z,2.90
2022-07-25T14:23:49.594Z,2.80
2022-07-25T14:26:16.258Z,2.90
2022-07-25T14:28:43.600Z,3.23
2022-07-25T14:31:11.560Z,3.10
2022-07-25T14:33:40.029Z,3.13
2022-07-25T14:36:10.634Z,3.13
2022-07-25T14:38:37.283Z,3.00
2022-07-25T14:41:10.668Z,3.65
2022-07-25T14:43:39.785Z,3.35
2022-07-25T14:46:08.025Z,3.55
2022-07-25T14:48:37.367Z,3.33
2022-07-25T14:51:05.025Z,3.17
2022-07-25T14:53:32.353Z,3.30
2022-07-25T14:55:59.332Z,3.20
2022-07-25T14:58:26.003Z,3.33
2022-07-25T15:00:52.721Z,3.60
2022-07-25T15:03:19.384Z,3.10
2022-07-25T15:05:46.117Z,3.17
2022-07-25T15:08:14.216Z,3.15
2022-07-25T15:10:41.164Z,3.35
2022-07-25T15:13:29.972Z,3.17
2022-07-25T15:15:58.188Z,3.50
2022-07-25T15:18:25.050Z,3.30
2022-07-25T15:20:52.147Z,3.00
2022-07-25T15:23:20.975Z,3.35
2022-07-25T15:26:04.442Z,3.40
2022-07-25T15:28:36.586Z,3.28
2022-07-25T15:31:04.624Z,3.45
2022-07-25T15:33:31.433Z,3.42
2022-07-25T15:35:58.477Z,3.17
2022-07-25T15:38:25.223Z,3.40
2022-07-25T15:40:54.390Z,3.80
2022-07-25T15:43:21.189Z,3.67
2022-07-25T15:45:47.853Z,3.53
2022-07-25T15:48:16.182Z,4.40
2022-07-25T15:50:45.797Z,3.90
2022-07-25T15:53:12.893Z,3.85
2022-07-25T15:55:40.942Z,3.70
2022-07-25T15:58:09.583Z,3.45
2022-07-25T16:00:36.969Z,3.33
2022-07-25T16:03:04.087Z,3.58
2022-07-25T16:05:31.183Z,3.53
2022-07-25T16:08:01.034Z,3.95
2022-07-25T16:10:28.940Z,3.42
2022-07-25T16:12:55.628Z,4.05
2022-07-25T16:15:22.329Z,3.75
2022-07-25T16:17:50.575Z,4.10
2022-07-25T16:20:17.373Z,3.42
2022-07-25T16:22:44.110Z,3.75
2022-07-25T16:25:10.794Z,3.78
2022-07-25T16:27:37.963Z,4.18
2022-07-25T16:30:05.273Z,3.90
2022-07-25T16:32:31.897Z,3.87
2022-07-25T16:34:58.596Z,3.92
2022-07-25T16:37:25.283Z,4.10
2022-07-25T16:39:51.945Z,3.43
2022-07-25T16:42:20.280Z,4.18
2022-07-25T16:44:48.496Z,3.97
2022-07-25T16:47:15.131Z,4.95
2022-07-25T16:49:41.790Z,8.88
2022-07-25T16:52:08.405Z,16.48
2022-07-25T16:54:35.330Z,22.30
2022-07-25T16:57:02.030Z,131.05
2022-07-25T16:59:28.671Z,229.38
2022-07-25T17:01:55.523Z,270.90
2022-07-25T17:04:22.557Z,275.67
2022-07-25T17:06:49.505Z,284.60
2022-07-25T17:09:16.929Z,262.17
2022-07-25T17:11:43.752Z,257.73
2022-07-25T17:14:10.607Z,287.87
2022-07-25T17:16:37.835Z,293.80
2022-07-25T17:19:04.881Z,290.27
2022-07-25T17:21:31.908Z,294.13
2022-07-25T17:24:01.058Z,301.88
2022-07-25T17:26:27.869Z,272.98
2022-07-25T17:28:55.447Z,227.90
2022-07-25T17:31:22.416Z,202.45
2022-07-25T17:33:49.060Z,223.18
2022-07-25T17:36:15.782Z,242.23
2022-07-25T17:38:42.659Z,249.35
2022-07-25T17:41:09.365Z,216.02
2022-07-25T17:43:36.157Z,209.75
2022-07-25T17:46:02.856Z,215.13
2022-07-25T17:48:29.823Z,231.88
2022-07-25T17:50:56.618Z,240.75
2022-07-25T17:53:23.264Z,227.70
2022-07-25T17:55:49.950Z,241.55
2022-07-25T17:58:16.655Z,221.43
2022-07-25T18:00:43.292Z,177.27
2022-07-25T18:03:10.054Z,201.57
2022-07-25T18:05:37.171Z,251.60
2022-07-25T18:08:04.211Z,262.35
2022-07-25T18:10:30.973Z,255.57
2022-07-25T18:13:01.950Z,274.38
2022-07-25T18:15:28.724Z,277.88
2022-07-25T18:17:55.438Z,281.80
2022-07-25T18:20:22.252Z,284.33
2022-07-25T18:22:51.759Z,257.00
2022-07-25T18:25:18.455Z,256.08
2022-07-25T18:27:46.929Z,267.35
2022-07-25T18:30:15.895Z,273.40
2022-07-25T18:32:45.357Z,277.27
2022-07-25T18:35:12.113Z,270.35
2022-07-25T18:37:39.233Z,271.35
2022-07-25T18:40:07.109Z,281.45
2022-07-25T18:42:34.630Z,290.90
2022-07-25T18:45:01.437Z,296.15
2022-07-25T18:47:32.327Z,303.85
2022-07-25T18:50:02.374Z,293.23
2022-07-25T18:52:35.116Z,300.42
2022-07-25T18:55:04.475Z,293.77
2022-07-25T18:57:31.170Z,304.25
2022-07-25T19:00:02.596Z,306.40
2022-07-25T19:02:30.259Z,291.50
2022-07-25T19:04:56.991Z,299.98
2022-07-25T19:07:23.935Z,283.83
2022-07-25T19:09:53.843Z,281.45
2022-07-25T19:12:20.494Z,278.90
2022-07-25T19:14:47.213Z,274.60
2022-07-25T19:17:13.930Z,278.33
2022-07-25T19:19:41.292Z,274.55
2022-07-25T19:22:07.961Z,261.93
2022-07-25T19:24:37.820Z,257.55
2022-07-25T19:27:05.499Z,265.58
2022-07-25T19:29:32.190Z,274.33
2022-07-25T19:31:58.998Z,277.50
2022-07-25T19:34:25.956Z,278.73
2022-07-25T19:36:57.863Z,271.37
2022-07-25T19:39:25.573Z,267.63
2022-07-25T19:41:52.737Z,267.17
2022-07-25T19:44:19.892Z,279.07
2022-07-25T19:46:54.366Z,286.65
2022-07-25T19:49:21.034Z,298.92
2022-07-25T19:51:47.941Z,291.90
2022-07-25T19:54:14.543Z,295.45
2022-07-25T19:56:41.247Z,302.10
2022-07-25T19:59:08.017Z,290.38
2022-07-25T20:01:35.859Z,279.75
2022-07-25T20:04:05.228Z,275.63
2022-07-25T20:06:34.966Z,278.45
2022-07-25T20:09:02.416Z,288.85
2022-07-25T20:11:29.081Z,280.38
2022-07-25T20:13:55.915Z,275.60
2022-07-25T20:16:23.576Z,275.03
2022-07-25T20:18:51.118Z,255.75
2022-07-25T20:21:18.040Z,269.80
2022-07-25T20:23:48.073Z,274.70
2022-07-25T20:26:20.829Z,288.48
2022-07-25T20:28:55.264Z,287.25
2022-07-25T20:31:24.846Z,289.85
2022-07-25T20:33:57.814Z,288.15
2022-07-25T20:36:29.158Z,287.20
2022-07-25T20:39:01.134Z,273.70
2022-07-25T20:41:31.209Z,277.60
2022-07-25T20:44:06.401Z,275.58
2022-07-25T20:46:41.208Z,293.25
2022-07-25T20:49:13.526Z,289.00
2022-07-25T20:51:41.347Z,288.52
2022-07-25T20:54:10.197Z,300.60
2022-07-25T20:56:36.810Z,301.67
2022-07-25T20:59:06.248Z,296.55
2022-07-25T21:01:37.272Z,277.55
2022-07-25T21:04:07.855Z,254.90
2022-07-25T21:06:38.062Z,254.67
2022-07-25T21:09:06.614Z,265.25
2022-07-25T21:11:38.767Z,266.42
2022-07-25T21:14:08.619Z,266.98
2022-07-25T21:16:44.105Z,269.10
2022-07-25T21:19:16.201Z,279.85
2022-07-25T21:21:42.930Z,276.83
2022-07-25T21:24:11.922Z,275.25
2022-07-25T21:26:39.558Z,280.00
2022-07-25T21:29:09.819Z,279.08
2022-07-25T21:31:37.470Z,277.85
2022-07-25T21:34:04.214Z,282.85
2022-07-25T21:36:34.291Z,275.90
2022-07-25T21:39:01.064Z,272.48
2022-07-25T21:41:32.755Z,272.23
2022-07-25T21:43:59.718Z,270.88
2022-07-25T21:46:26.569Z,273.90
2022-07-25T21:49:12.113Z,277.85
2022-07-25T21:51:42.309Z,269.33
2022-07-25T21:54:11.801Z,255.95
2022-07-25T21:56:39.243Z,259.35
2022-07-25T21:59:06.899Z,256.67
2022-07-25T22:01:33.878Z,248.88
2022-07-25T22:04:00.628Z,239.63
2022-07-25T22:06:27.296Z,240.05
2022-07-25T22:08:54.816Z,239.85
2022-07-25T22:11:38.562Z,236.68
2022-07-25T22:14:08.879Z,237.77
2022-07-25T22:16:36.807Z,243.18
2022-07-25T22:19:04.502Z,253.02
2022-07-25T22:21:31.378Z,243.27
2022-07-25T22:23:57.985Z,232.98
2022-07-25T22:26:24.963Z,240.30
2022-07-25T22:28:51.604Z,242.07
2022-07-25T22:31:18.341Z,249.88
2022-07-25T22:33:45.086Z,244.50
2022-07-25T22:36:11.716Z,251.25
2022-07-25T22:38:38.524Z,247.23
2022-07-25T22:41:05.257Z,252.70
2022-07-25T22:43:53.162Z,253.27
2022-07-25T22:46:19.038Z,268.40
2022-07-25T22:48:45.703Z,269.60
2022-07-25T22:51:12.381Z,284.35
2022-07-25T22:53:39.087Z,261.55
2022-07-25T22:56:05.951Z,259.45
2022-07-25T22:58:32.577Z,261.70
2022-07-25T23:00:59.223Z,258.95
2022-07-25T23:03:25.999Z,297.13
2022-07-25T23:05:58.192Z,289.13
2022-07-25T23:08:24.785Z,269.90
2022-07-25T23:10:51.497Z,288.02
2022-07-25T23:13:18.780Z,272.98
2022-07-25T23:15:50.083Z,260.60
2022-07-25T23:18:17.200Z,271.42
2022-07-25T23:20:43.833Z,279.42
2022-07-25T23:23:10.499Z,275.65
2022-07-25T23:25:37.086Z,279.98
2022-07-25T23:28:03.785Z,271.10
2022-07-25T23:30:30.398Z,271.10
2022-07-25T23:32:57.187Z,259.73
2022-07-25T23:35:24.260Z,259.08
2022-07-25T23:37:50.877Z,285.65
2022-07-25T23:40:17.521Z,277.08
2022-07-25T23:42:44.207Z,271.98
2022-07-25T23:45:11.646Z,289.23
2022-07-25T23:47:39.720Z,289.85
2022-07-25T23:50:09.582Z,288.52
2022-07-25T23:52:36.217Z,278.05
2022-07-25T23:55:03.079Z,287.42
2022-07-25T23:57:29.740Z,278.63
2022-07-25T23:59:56.501Z,273.13
